Sanliurfa, Turkey
Current Conditions -  °F | °C
As of 9:50 AM on Wednesday 26 Nov 2014 (Local Time) from LTCS Reporting Station
Light Rain Light Rain  
Wind Chill: 37°   Ceiling: 2000
Heat Index: 45°   Visibility: 0.43mi
Dew Point: 43°   Wind: 16mph
Humidity: 93%   Direction: 140°SE
Pressure: 29.88"   Gusts: NA
Location:  37.15°N, 38.8°E
Report Text: LTCS 260750Z 14014KT 0700 R04/0450D R22/0600D -RA BCFG SCT002 BKN020 OVC070 07/06 Q1012
Loading
Personal Weather Stations






























Interactive Weather Map New forecast layout! Learn more

10-Day Weather Forecast

Advertisements
Track Severe Weather on mobile